sensor_id;sensor_type;location;lat;lon;timestamp;P1;durP1;ratioP1;P2;durP2;ratioP2
11222;SDS011;5668;52.012;8.724;2022-11-06T00:01:25;6.97;;;4.90;;
11222;SDS011;5668;52.012;8.724;2022-11-06T00:03:53;7.60;;;4.87;;
11222;SDS011;5668;52.012;8.724;2022-11-06T00:06:20;5.43;;;4.77;;
11222;SDS011;5668;52.012;8.724;2022-11-06T00:09:05;8.07;;;4.70;;
11222;SDS011;5668;52.012;8.724;2022-11-06T00:11:34;6.57;;;4.33;;
11222;SDS011;5668;52.012;8.724;2022-11-06T00:14:02;7.03;;;4.27;;
11222;SDS011;5668;52.012;8.724;2022-11-06T00:16:31;5.07;;;4.00;;
11222;SDS011;5668;52.012;8.724;2022-11-06T00:19:01;5.03;;;4.63;;
11222;SDS011;5668;52.012;8.724;2022-11-06T00:21:29;5.50;;;4.20;;
11222;SDS011;5668;52.012;8.724;2022-11-06T00:23:57;7.70;;;4.37;;
11222;SDS011;5668;52.012;8.724;2022-11-06T00:26:26;5.30;;;4.50;;
11222;SDS011;5668;52.012;8.724;2022-11-06T00:28:54;5.30;;;4.60;;
11222;SDS011;5668;52.012;8.724;2022-11-06T00:31:23;7.80;;;4.67;;
11222;SDS011;5668;52.012;8.724;2022-11-06T00:33:55;5.77;;;4.17;;
11222;SDS011;5668;52.012;8.724;2022-11-06T00:36:24;6.53;;;3.83;;
11222;SDS011;5668;52.012;8.724;2022-11-06T00:38:56;7.10;;;4.63;;
11222;SDS011;5668;52.012;8.724;2022-11-06T00:41:24;4.90;;;4.40;;
11222;SDS011;5668;52.012;8.724;2022-11-06T00:43:53;7.90;;;4.30;;
11222;SDS011;5668;52.012;8.724;2022-11-06T00:46:23;5.50;;;4.40;;
11222;SDS011;5668;52.012;8.724;2022-11-06T00:48:51;5.37;;;4.37;;
11222;SDS011;5668;52.012;8.724;2022-11-06T00:51:21;6.27;;;4.63;;
11222;SDS011;5668;52.012;8.724;2022-11-06T00:53:55;5.70;;;4.83;;
11222;SDS011;5668;52.012;8.724;2022-11-06T00:56:23;6.27;;;4.67;;
11222;SDS011;5668;52.012;8.724;2022-11-06T00:58:51;5.03;;;4.30;;
11222;SDS011;5668;52.012;8.724;2022-11-06T01:01:20;6.20;;;4.57;;
11222;SDS011;5668;52.012;8.724;2022-11-06T01:03:51;7.07;;;4.50;;
11222;SDS011;5668;52.012;8.724;2022-11-06T01:06:22;6.73;;;4.37;;
11222;SDS011;5668;52.012;8.724;2022-11-06T01:08:51;8.30;;;5.07;;
11222;SDS011;5668;52.012;8.724;2022-11-06T01:11:20;8.57;;;5.03;;
11222;SDS011;5668;52.012;8.724;2022-11-06T01:13:48;7.83;;;5.10;;
11222;SDS011;5668;52.012;8.724;2022-11-06T01:16:17;8.80;;;4.90;;
11222;SDS011;5668;52.012;8.724;2022-11-06T01:18:45;7.57;;;4.90;;
11222;SDS011;5668;52.012;8.724;2022-11-06T01:21:13;5.73;;;4.50;;
11222;SDS011;5668;52.012;8.724;2022-11-06T01:23:43;5.20;;;4.43;;
11222;SDS011;5668;52.012;8.724;2022-11-06T01:26:12;8.17;;;5.10;;
11222;SDS011;5668;52.012;8.724;2022-11-06T01:28:40;5.23;;;4.60;;
11222;SDS011;5668;52.012;8.724;2022-11-06T01:31:08;6.10;;;5.00;;
11222;SDS011;5668;52.012;8.724;2022-11-06T01:33:43;5.83;;;4.33;;
11222;SDS011;5668;52.012;8.724;2022-11-06T01:36:12;4.93;;;4.53;;
11222;SDS011;5668;52.012;8.724;2022-11-06T01:38:46;6.13;;;4.80;;
11222;SDS011;5668;52.012;8.724;2022-11-06T01:41:16;6.07;;;5.20;;
11222;SDS011;5668;52.012;8.724;2022-11-06T01:43:45;7.23;;;4.63;;
11222;SDS011;5668;52.012;8.724;2022-11-06T01:46:14;7.13;;;4.30;;
11222;SDS011;5668;52.012;8.724;2022-11-06T01:48:43;6.03;;;4.50;;
11222;SDS011;5668;52.012;8.724;2022-11-06T01:51:13;5.53;;;4.33;;
11222;SDS011;5668;52.012;8.724;2022-11-06T01:53:41;7.00;;;4.80;;
11222;SDS011;5668;52.012;8.724;2022-11-06T01:56:10;6.73;;;4.03;;
11222;SDS011;5668;52.012;8.724;2022-11-06T01:58:39;7.53;;;4.40;;
11222;SDS011;5668;52.012;8.724;2022-11-06T02:01:09;7.17;;;4.07;;
11222;SDS011;5668;52.012;8.724;2022-11-06T02:03:36;7.53;;;4.80;;
11222;SDS011;5668;52.012;8.724;2022-11-06T02:06:06;5.17;;;4.30;;
11222;SDS011;5668;52.012;8.724;2022-11-06T02:08:34;7.70;;;4.57;;
11222;SDS011;5668;52.012;8.724;2022-11-06T02:11:01;5.03;;;4.20;;
11222;SDS011;5668;52.012;8.724;2022-11-06T02:13:35;8.17;;;4.10;;
11222;SDS011;5668;52.012;8.724;2022-11-06T02:16:12;5.53;;;3.93;;
11222;SDS011;5668;52.012;8.724;2022-11-06T02:18:48;5.07;;;4.00;;
11222;SDS011;5668;52.012;8.724;2022-11-06T02:21:50;4.57;;;3.90;;
11222;SDS011;5668;52.012;8.724;2022-11-06T02:27:34;6.00;;;3.43;;
11222;SDS011;5668;52.012;8.724;2022-11-06T02:30:04;5.53;;;3.53;;
11222;SDS011;5668;52.012;8.724;2022-11-06T02:32:36;4.33;;;3.50;;
11222;SDS011;5668;52.012;8.724;2022-11-06T02:35:10;6.17;;;3.43;;
11222;SDS011;5668;52.012;8.724;2022-11-06T02:37:43;4.80;;;3.53;;
11222;SDS011;5668;52.012;8.724;2022-11-06T02:40:12;5.27;;;3.40;;
11222;SDS011;5668;52.012;8.724;2022-11-06T02:42:44;7.47;;;3.77;;
11222;SDS011;5668;52.012;8.724;2022-11-06T02:45:15;4.60;;;2.77;;
11222;SDS011;5668;52.012;8.724;2022-11-06T02:47:45;5.50;;;3.13;;
11222;SDS011;5668;52.012;8.724;2022-11-06T02:50:18;5.47;;;3.33;;
11222;SDS011;5668;52.012;8.724;2022-11-06T02:52:50;3.63;;;3.20;;
11222;SDS011;5668;52.012;8.724;2022-11-06T02:55:22;4.30;;;3.53;;
11222;SDS011;5668;52.012;8.724;2022-11-06T02:57:55;4.73;;;3.10;;
11222;SDS011;5668;52.012;8.724;2022-11-06T03:00:25;3.97;;;3.20;;
11222;SDS011;5668;52.012;8.724;2022-11-06T03:02:54;6.27;;;3.33;;
11222;SDS011;5668;52.012;8.724;2022-11-06T03:05:25;5.40;;;3.20;;
11222;SDS011;5668;52.012;8.724;2022-11-06T03:07:59;4.70;;;3.10;;
11222;SDS011;5668;52.012;8.724;2022-11-06T03:10:34;3.80;;;2.83;;
11222;SDS011;5668;52.012;8.724;2022-11-06T03:13:08;6.27;;;3.10;;
11222;SDS011;5668;52.012;8.724;2022-11-06T03:15:44;6.90;;;3.47;;
11222;SDS011;5668;52.012;8.724;2022-11-06T03:18:19;5.27;;;2.80;;
11222;SDS011;5668;52.012;8.724;2022-11-06T03:20:55;5.27;;;3.10;;
11222;SDS011;5668;52.012;8.724;2022-11-06T03:23:27;4.93;;;3.10;;
11222;SDS011;5668;52.012;8.724;2022-11-06T03:26:02;4.63;;;2.90;;
11222;SDS011;5668;52.012;8.724;2022-11-06T03:28:39;5.07;;;2.87;;
11222;SDS011;5668;52.012;8.724;2022-11-06T03:31:14;4.33;;;3.00;;
11222;SDS011;5668;52.012;8.724;2022-11-06T03:33:46;5.17;;;3.07;;
11222;SDS011;5668;52.012;8.724;2022-11-06T03:36:17;5.20;;;2.90;;
11222;SDS011;5668;52.012;8.724;2022-11-06T03:38:50;4.53;;;2.93;;
11222;SDS011;5668;52.012;8.724;2022-11-06T03:41:21;4.20;;;3.07;;
11222;SDS011;5668;52.012;8.724;2022-11-06T03:43:55;4.40;;;2.73;;
11222;SDS011;5668;52.012;8.724;2022-11-06T03:46:24;5.23;;;2.80;;
11222;SDS011;5668;52.012;8.724;2022-11-06T03:48:53;4.93;;;2.60;;
11222;SDS011;5668;52.012;8.724;2022-11-06T03:51:25;4.43;;;3.00;;
11222;SDS011;5668;52.012;8.724;2022-11-06T03:53:58;5.03;;;2.90;;
11222;SDS011;5668;52.012;8.724;2022-11-06T03:56:31;4.13;;;2.60;;
11222;SDS011;5668;52.012;8.724;2022-11-06T03:59:03;2.77;;;2.47;;
11222;SDS011;5668;52.012;8.724;2022-11-06T04:01:34;3.83;;;2.60;;
11222;SDS011;5668;52.012;8.724;2022-11-06T04:04:04;3.40;;;2.83;;
11222;SDS011;5668;52.012;8.724;2022-11-06T04:06:39;3.97;;;2.43;;
11222;SDS011;5668;52.012;8.724;2022-11-06T04:09:09;6.50;;;2.63;;
11222;SDS011;5668;52.012;8.724;2022-11-06T04:12:05;5.43;;;3.00;;
11222;SDS011;5668;52.012;8.724;2022-11-06T04:14:54;4.40;;;2.77;;
11222;SDS011;5668;52.012;8.724;2022-11-06T04:17:25;4.90;;;2.80;;
11222;SDS011;5668;52.012;8.724;2022-11-06T04:19:56;4.37;;;2.87;;
11222;SDS011;5668;52.012;8.724;2022-11-06T04:22:33;3.73;;;2.77;;
11222;SDS011;5668;52.012;8.724;2022-11-06T04:25:14;4.07;;;2.60;;
11222;SDS011;5668;52.012;8.724;2022-11-06T04:28:19;4.03;;;2.50;;
11222;SDS011;5668;52.012;8.724;2022-11-06T04:30:56;5.13;;;2.40;;
11222;SDS011;5668;52.012;8.724;2022-11-06T04:33:33;5.13;;;2.67;;
11222;SDS011;5668;52.012;8.724;2022-11-06T04:36:10;4.37;;;2.60;;
11222;SDS011;5668;52.012;8.724;2022-11-06T04:38:46;6.97;;;2.27;;
11222;SDS011;5668;52.012;8.724;2022-11-06T04:41:24;5.63;;;2.73;;
11222;SDS011;5668;52.012;8.724;2022-11-06T04:43:59;4.57;;;2.83;;
11222;SDS011;5668;52.012;8.724;2022-11-06T04:46:31;6.27;;;2.60;;
11222;SDS011;5668;52.012;8.724;2022-11-06T04:49:03;3.67;;;2.13;;
11222;SDS011;5668;52.012;8.724;2022-11-06T04:51:33;4.07;;;2.10;;
11222;SDS011;5668;52.012;8.724;2022-11-06T04:54:03;4.77;;;2.60;;
11222;SDS011;5668;52.012;8.724;2022-11-06T04:56:33;4.17;;;2.60;;
11222;SDS011;5668;52.012;8.724;2022-11-06T04:59:01;2.83;;;2.27;;
11222;SDS011;5668;52.012;8.724;2022-11-06T05:01:28;3.00;;;2.17;;
11222;SDS011;5668;52.012;8.724;2022-11-06T05:03:57;6.23;;;2.73;;
11222;SDS011;5668;52.012;8.724;2022-11-06T05:06:24;4.27;;;2.30;;
11222;SDS011;5668;52.012;8.724;2022-11-06T05:08:51;5.27;;;2.50;;
11222;SDS011;5668;52.012;8.724;2022-11-06T05:11:19;3.40;;;2.30;;
11222;SDS011;5668;52.012;8.724;2022-11-06T05:13:46;4.37;;;2.50;;
11222;SDS011;5668;52.012;8.724;2022-11-06T05:16:13;3.67;;;2.27;;
11222;SDS011;5668;52.012;8.724;2022-11-06T05:18:42;4.33;;;2.53;;
11222;SDS011;5668;52.012;8.724;2022-11-06T05:21:09;4.37;;;2.47;;
11222;SDS011;5668;52.012;8.724;2022-11-06T05:23:54;3.17;;;2.20;;
11222;SDS011;5668;52.012;8.724;2022-11-06T05:26:21;3.80;;;2.30;;
11222;SDS011;5668;52.012;8.724;2022-11-06T05:28:49;5.70;;;2.37;;
11222;SDS011;5668;52.012;8.724;2022-11-06T05:31:16;2.33;;;1.93;;
11222;SDS011;5668;52.012;8.724;2022-11-06T05:33:45;2.73;;;2.07;;
11222;SDS011;5668;52.012;8.724;2022-11-06T05:36:12;3.63;;;2.23;;
11222;SDS011;5668;52.012;8.724;2022-11-06T05:38:39;6.33;;;2.37;;
11222;SDS011;5668;52.012;8.724;2022-11-06T05:41:06;4.97;;;2.00;;
11222;SDS011;5668;52.012;8.724;2022-11-06T05:43:33;2.57;;;2.27;;
11222;SDS011;5668;52.012;8.724;2022-11-06T05:46:01;3.90;;;2.30;;
11222;SDS011;5668;52.012;8.724;2022-11-06T05:48:28;3.77;;;2.23;;
11222;SDS011;5668;52.012;8.724;2022-11-06T05:50:59;5.70;;;2.40;;
11222;SDS011;5668;52.012;8.724;2022-11-06T05:53:28;3.90;;;2.30;;
11222;SDS011;5668;52.012;8.724;2022-11-06T05:55:55;4.50;;;2.43;;
11222;SDS011;5668;52.012;8.724;2022-11-06T05:58:22;5.37;;;2.67;;
11222;SDS011;5668;52.012;8.724;2022-11-06T06:00:50;3.00;;;1.90;;
11222;SDS011;5668;52.012;8.724;2022-11-06T06:03:17;2.73;;;2.10;;
11222;SDS011;5668;52.012;8.724;2022-11-06T06:05:45;4.67;;;2.40;;
11222;SDS011;5668;52.012;8.724;2022-11-06T06:08:13;3.37;;;2.37;;
11222;SDS011;5668;52.012;8.724;2022-11-06T06:10:41;3.53;;;2.10;;
11222;SDS011;5668;52.012;8.724;2022-11-06T06:13:08;4.50;;;2.30;;
11222;SDS011;5668;52.012;8.724;2022-11-06T06:15:36;4.30;;;2.40;;
11222;SDS011;5668;52.012;8.724;2022-11-06T06:18:04;4.27;;;2.20;;
11222;SDS011;5668;52.012;8.724;2022-11-06T06:20:32;3.37;;;1.83;;
11222;SDS011;5668;52.012;8.724;2022-11-06T06:23:00;4.87;;;2.00;;
11222;SDS011;5668;52.012;8.724;2022-11-06T06:25:29;4.63;;;2.10;;
11222;SDS011;5668;52.012;8.724;2022-11-06T06:27:56;3.63;;;2.30;;
11222;SDS011;5668;52.012;8.724;2022-11-06T06:30:23;4.87;;;2.20;;
11222;SDS011;5668;52.012;8.724;2022-11-06T06:32:51;2.63;;;1.90;;
11222;SDS011;5668;52.012;8.724;2022-11-06T06:35:18;3.40;;;2.10;;
11222;SDS011;5668;52.012;8.724;2022-11-06T06:37:49;3.67;;;1.87;;
11222;SDS011;5668;52.012;8.724;2022-11-06T06:40:17;3.43;;;2.40;;
11222;SDS011;5668;52.012;8.724;2022-11-06T06:42:46;2.83;;;1.90;;
11222;SDS011;5668;52.012;8.724;2022-11-06T06:45:13;5.00;;;2.20;;
11222;SDS011;5668;52.012;8.724;2022-11-06T06:47:41;5.10;;;2.63;;
11222;SDS011;5668;52.012;8.724;2022-11-06T06:50:09;5.73;;;2.40;;
11222;SDS011;5668;52.012;8.724;2022-11-06T06:52:37;2.80;;;2.23;;
11222;SDS011;5668;52.012;8.724;2022-11-06T06:55:05;4.53;;;2.20;;
11222;SDS011;5668;52.012;8.724;2022-11-06T06:57:32;2.90;;;1.90;;
11222;SDS011;5668;52.012;8.724;2022-11-06T07:00:01;2.97;;;2.10;;
11222;SDS011;5668;52.012;8.724;2022-11-06T07:02:29;2.37;;;1.90;;
11222;SDS011;5668;52.012;8.724;2022-11-06T07:04:56;5.63;;;2.30;;
11222;SDS011;5668;52.012;8.724;2022-11-06T07:07:23;3.03;;;2.27;;
11222;SDS011;5668;52.012;8.724;2022-11-06T07:09:50;3.63;;;1.80;;
11222;SDS011;5668;52.012;8.724;2022-11-06T07:12:17;3.57;;;2.30;;
11222;SDS011;5668;52.012;8.724;2022-11-06T07:14:44;3.33;;;2.30;;
11222;SDS011;5668;52.012;8.724;2022-11-06T07:17:13;4.40;;;2.10;;
11222;SDS011;5668;52.012;8.724;2022-11-06T07:19:40;4.83;;;2.10;;
11222;SDS011;5668;52.012;8.724;2022-11-06T07:22:07;4.03;;;2.33;;
11222;SDS011;5668;52.012;8.724;2022-11-06T07:24:35;3.03;;;2.10;;
11222;SDS011;5668;52.012;8.724;2022-11-06T07:27:02;4.53;;;2.27;;
11222;SDS011;5668;52.012;8.724;2022-11-06T07:29:29;4.07;;;2.20;;
11222;SDS011;5668;52.012;8.724;2022-11-06T07:31:56;5.07;;;2.50;;
11222;SDS011;5668;52.012;8.724;2022-11-06T07:34:25;3.67;;;2.30;;
11222;SDS011;5668;52.012;8.724;2022-11-06T07:36:52;3.87;;;2.00;;
11222;SDS011;5668;52.012;8.724;2022-11-06T07:39:19;5.30;;;2.00;;
11222;SDS011;5668;52.012;8.724;2022-11-06T07:41:46;3.77;;;2.20;;
11222;SDS011;5668;52.012;8.724;2022-11-06T07:44:13;4.23;;;2.10;;
11222;SDS011;5668;52.012;8.724;2022-11-06T07:46:40;2.83;;;1.90;;
11222;SDS011;5668;52.012;8.724;2022-11-06T07:49:08;2.50;;;1.90;;
11222;SDS011;5668;52.012;8.724;2022-11-06T07:51:36;3.57;;;2.43;;
11222;SDS011;5668;52.012;8.724;2022-11-06T07:54:03;2.47;;;2.10;;
11222;SDS011;5668;52.012;8.724;2022-11-06T07:56:31;3.13;;;2.13;;
11222;SDS011;5668;52.012;8.724;2022-11-06T07:58:58;3.07;;;2.17;;
11222;SDS011;5668;52.012;8.724;2022-11-06T08:01:25;4.10;;;1.97;;
11222;SDS011;5668;52.012;8.724;2022-11-06T08:03:52;3.23;;;1.90;;
11222;SDS011;5668;52.012;8.724;2022-11-06T08:06:19;4.73;;;2.30;;
11222;SDS011;5668;52.012;8.724;2022-11-06T08:08:48;3.83;;;2.30;;
11222;SDS011;5668;52.012;8.724;2022-11-06T08:11:15;3.93;;;2.10;;
11222;SDS011;5668;52.012;8.724;2022-11-06T08:13:42;4.27;;;2.07;;
11222;SDS011;5668;52.012;8.724;2022-11-06T08:16:10;4.10;;;2.03;;
11222;SDS011;5668;52.012;8.724;2022-11-06T08:18:39;2.73;;;2.00;;
11222;SDS011;5668;52.012;8.724;2022-11-06T08:21:06;3.60;;;2.30;;
11222;SDS011;5668;52.012;8.724;2022-11-06T08:23:34;2.93;;;2.30;;
11222;SDS011;5668;52.012;8.724;2022-11-06T08:26:03;3.27;;;2.40;;
11222;SDS011;5668;52.012;8.724;2022-11-06T08:28:31;3.77;;;2.47;;
11222;SDS011;5668;52.012;8.724;2022-11-06T08:31:01;3.73;;;2.00;;
11222;SDS011;5668;52.012;8.724;2022-11-06T08:33:29;3.50;;;2.20;;
11222;SDS011;5668;52.012;8.724;2022-11-06T08:35:59;4.43;;;2.53;;
11222;SDS011;5668;52.012;8.724;2022-11-06T08:38:27;4.27;;;2.30;;
11222;SDS011;5668;52.012;8.724;2022-11-06T08:40:54;3.23;;;2.50;;
11222;SDS011;5668;52.012;8.724;2022-11-06T08:43:23;3.10;;;2.40;;
11222;SDS011;5668;52.012;8.724;2022-11-06T08:45:51;2.97;;;2.30;;
11222;SDS011;5668;52.012;8.724;2022-11-06T08:48:18;4.67;;;2.50;;
11222;SDS011;5668;52.012;8.724;2022-11-06T08:50:45;2.30;;;2.10;;
11222;SDS011;5668;52.012;8.724;2022-11-06T08:53:13;3.00;;;2.53;;
11222;SDS011;5668;52.012;8.724;2022-11-06T08:55:40;4.73;;;2.80;;
11222;SDS011;5668;52.012;8.724;2022-11-06T08:58:07;4.40;;;2.37;;
11222;SDS011;5668;52.012;8.724;2022-11-06T09:00:35;4.73;;;2.50;;
11222;SDS011;5668;52.012;8.724;2022-11-06T09:03:03;3.13;;;2.03;;
11222;SDS011;5668;52.012;8.724;2022-11-06T09:05:32;3.47;;;2.57;;
11222;SDS011;5668;52.012;8.724;2022-11-06T09:07:59;4.17;;;2.10;;
11222;SDS011;5668;52.012;8.724;2022-11-06T09:10:27;2.80;;;2.13;;
11222;SDS011;5668;52.012;8.724;2022-11-06T09:12:56;2.63;;;2.20;;
11222;SDS011;5668;52.012;8.724;2022-11-06T09:15:24;5.70;;;2.40;;
11222;SDS011;5668;52.012;8.724;2022-11-06T09:17:53;4.90;;;2.57;;
11222;SDS011;5668;52.012;8.724;2022-11-06T09:20:21;2.97;;;2.40;;
11222;SDS011;5668;52.012;8.724;2022-11-06T09:22:49;3.23;;;2.50;;
11222;SDS011;5668;52.012;8.724;2022-11-06T09:25:17;3.67;;;2.07;;
11222;SDS011;5668;52.012;8.724;2022-11-06T09:27:45;3.50;;;2.37;;
11222;SDS011;5668;52.012;8.724;2022-11-06T09:30:15;3.90;;;1.97;;
11222;SDS011;5668;52.012;8.724;2022-11-06T09:32:45;4.53;;;2.53;;
11222;SDS011;5668;52.012;8.724;2022-11-06T09:35:15;3.17;;;2.00;;
11222;SDS011;5668;52.012;8.724;2022-11-06T09:37:43;4.33;;;2.17;;
11222;SDS011;5668;52.012;8.724;2022-11-06T09:40:14;2.30;;;2.10;;
11222;SDS011;5668;52.012;8.724;2022-11-06T09:42:49;3.53;;;1.80;;
11222;SDS011;5668;52.012;8.724;2022-11-06T09:45:25;3.80;;;2.23;;
11222;SDS011;5668;52.012;8.724;2022-11-06T09:47:56;5.30;;;2.40;;
11222;SDS011;5668;52.012;8.724;2022-11-06T09:50:33;3.53;;;2.20;;
11222;SDS011;5668;52.012;8.724;2022-11-06T09:53:04;3.30;;;2.00;;
11222;SDS011;5668;52.012;8.724;2022-11-06T09:55:39;2.13;;;1.83;;
11222;SDS011;5668;52.012;8.724;2022-11-06T09:58:10;5.60;;;2.17;;
11222;SDS011;5668;52.012;8.724;2022-11-06T10:00:40;4.47;;;2.13;;
11222;SDS011;5668;52.012;8.724;2022-11-06T10:03:11;3.33;;;2.00;;
11222;SDS011;5668;52.012;8.724;2022-11-06T10:05:44;3.20;;;2.13;;
11222;SDS011;5668;52.012;8.724;2022-11-06T10:08:13;3.87;;;1.93;;
11222;SDS011;5668;52.012;8.724;2022-11-06T10:10:45;1.73;;;1.63;;
11222;SDS011;5668;52.012;8.724;2022-11-06T10:13:30;3.07;;;1.90;;
11222;SDS011;5668;52.012;8.724;2022-11-06T10:16:11;3.17;;;1.80;;
11222;SDS011;5668;52.012;8.724;2022-11-06T10:18:52;2.07;;;1.83;;
11222;SDS011;5668;52.012;8.724;2022-11-06T10:21:30;2.93;;;1.70;;
11222;SDS011;5668;52.012;8.724;2022-11-06T10:24:06;1.40;;;1.30;;
11222;SDS011;5668;52.012;8.724;2022-11-06T10:26:44;2.40;;;1.57;;
11222;SDS011;5668;52.012;8.724;2022-11-06T10:29:21;2.30;;;1.90;;
11222;SDS011;5668;52.012;8.724;2022-11-06T10:32:00;2.33;;;1.67;;
11222;SDS011;5668;52.012;8.724;2022-11-06T10:34:35;4.13;;;1.77;;
11222;SDS011;5668;52.012;8.724;2022-11-06T10:37:09;2.80;;;1.70;;
11222;SDS011;5668;52.012;8.724;2022-11-06T10:39:40;4.33;;;1.50;;
11222;SDS011;5668;52.012;8.724;2022-11-06T10:42:09;4.27;;;1.60;;
11222;SDS011;5668;52.012;8.724;2022-11-06T10:44:44;1.53;;;1.40;;
11222;SDS011;5668;52.012;8.724;2022-11-06T10:47:17;2.93;;;1.50;;
11222;SDS011;5668;52.012;8.724;2022-11-06T10:49:47;2.33;;;1.30;;
11222;SDS011;5668;52.012;8.724;2022-11-06T10:52:24;2.50;;;1.60;;
11222;SDS011;5668;52.012;8.724;2022-11-06T10:55:14;4.63;;;1.77;;
11222;SDS011;5668;52.012;8.724;2022-11-06T10:58:03;2.03;;;1.60;;
11222;SDS011;5668;52.012;8.724;2022-11-06T11:00:32;3.13;;;1.83;;
11222;SDS011;5668;52.012;8.724;2022-11-06T11:03:01;3.63;;;1.53;;
11222;SDS011;5668;52.012;8.724;2022-11-06T11:05:34;2.90;;;1.70;;
11222;SDS011;5668;52.012;8.724;2022-11-06T11:08:05;2.80;;;1.50;;
11222;SDS011;5668;52.012;8.724;2022-11-06T11:10:59;2.37;;;1.80;;
11222;SDS011;5668;52.012;8.724;2022-11-06T11:13:27;4.30;;;1.80;;
11222;SDS011;5668;52.012;8.724;2022-11-06T11:15:54;2.80;;;2.00;;
11222;SDS011;5668;52.012;8.724;2022-11-06T11:18:23;4.13;;;2.00;;
11222;SDS011;5668;52.012;8.724;2022-11-06T11:21:03;3.87;;;1.90;;
11222;SDS011;5668;52.012;8.724;2022-11-06T11:23:32;2.37;;;1.63;;
11222;SDS011;5668;52.012;8.724;2022-11-06T11:26:13;3.20;;;1.63;;
11222;SDS011;5668;52.012;8.724;2022-11-06T11:28:50;4.07;;;2.27;;
11222;SDS011;5668;52.012;8.724;2022-11-06T11:31:20;3.47;;;1.90;;
11222;SDS011;5668;52.012;8.724;2022-11-06T11:33:54;2.30;;;1.80;;
11222;SDS011;5668;52.012;8.724;2022-11-06T11:36:23;4.27;;;1.73;;
11222;SDS011;5668;52.012;8.724;2022-11-06T11:38:52;4.20;;;2.17;;
11222;SDS011;5668;52.012;8.724;2022-11-06T11:41:23;3.67;;;2.27;;
11222;SDS011;5668;52.012;8.724;2022-11-06T11:43:57;3.43;;;1.93;;
11222;SDS011;5668;52.012;8.724;2022-11-06T11:46:31;3.37;;;2.00;;
11222;SDS011;5668;52.012;8.724;2022-11-06T11:48:58;2.60;;;1.90;;
11222;SDS011;5668;52.012;8.724;2022-11-06T11:51:30;2.93;;;1.90;;
11222;SDS011;5668;52.012;8.724;2022-11-06T11:54:02;3.33;;;1.80;;
11222;SDS011;5668;52.012;8.724;2022-11-06T11:56:32;2.40;;;1.83;;
11222;SDS011;5668;52.012;8.724;2022-11-06T11:59:00;3.43;;;1.80;;
11222;SDS011;5668;52.012;8.724;2022-11-06T12:01:32;3.37;;;1.97;;
11222;SDS011;5668;52.012;8.724;2022-11-06T12:04:13;3.37;;;2.10;;
11222;SDS011;5668;52.012;8.724;2022-11-06T12:09:39;3.50;;;2.03;;
11222;SDS011;5668;52.012;8.724;2022-11-06T12:12:16;4.87;;;2.17;;
11222;SDS011;5668;52.012;8.724;2022-11-06T12:14:46;2.87;;;2.40;;
11222;SDS011;5668;52.012;8.724;2022-11-06T12:17:42;5.40;;;2.13;;
11222;SDS011;5668;52.012;8.724;2022-11-06T12:20:13;3.67;;;2.27;;
11222;SDS011;5668;52.012;8.724;2022-11-06T12:22:47;2.97;;;2.20;;
11222;SDS011;5668;52.012;8.724;2022-11-06T12:25:21;3.33;;;2.30;;
11222;SDS011;5668;52.012;8.724;2022-11-06T12:27:52;4.47;;;2.23;;
11222;SDS011;5668;52.012;8.724;2022-11-06T12:30:23;3.47;;;2.23;;
11222;SDS011;5668;52.012;8.724;2022-11-06T12:32:53;4.37;;;2.20;;
11222;SDS011;5668;52.012;8.724;2022-11-06T12:35:27;3.87;;;2.50;;
11222;SDS011;5668;52.012;8.724;2022-11-06T12:38:09;2.43;;;2.20;;
11222;SDS011;5668;52.012;8.724;2022-11-06T12:40:46;3.77;;;2.47;;
11222;SDS011;5668;52.012;8.724;2022-11-06T12:43:19;4.37;;;2.33;;
11222;SDS011;5668;52.012;8.724;2022-11-06T12:46:01;4.67;;;2.50;;
11222;SDS011;5668;52.012;8.724;2022-11-06T12:48:42;5.30;;;2.60;;
11222;SDS011;5668;52.012;8.724;2022-11-06T12:51:32;3.10;;;2.53;;
11222;SDS011;5668;52.012;8.724;2022-11-06T12:54:11;6.70;;;2.90;;
11222;SDS011;5668;52.012;8.724;2022-11-06T12:56:54;3.30;;;2.20;;
11222;SDS011;5668;52.012;8.724;2022-11-06T12:59:32;4.50;;;2.37;;
11222;SDS011;5668;52.012;8.724;2022-11-06T13:02:11;4.50;;;2.60;;
11222;SDS011;5668;52.012;8.724;2022-11-06T13:04:54;3.47;;;2.47;;
11222;SDS011;5668;52.012;8.724;2022-11-06T13:07:38;3.00;;;2.20;;
11222;SDS011;5668;52.012;8.724;2022-11-06T13:10:25;3.93;;;2.47;;
11222;SDS011;5668;52.012;8.724;2022-11-06T13:13:09;3.50;;;2.10;;
11222;SDS011;5668;52.012;8.724;2022-11-06T13:15:47;3.63;;;2.00;;
11222;SDS011;5668;52.012;8.724;2022-11-06T13:18:19;5.67;;;2.80;;
11222;SDS011;5668;52.012;8.724;2022-11-06T13:20:51;3.43;;;2.43;;
11222;SDS011;5668;52.012;8.724;2022-11-06T13:23:24;3.00;;;2.40;;
11222;SDS011;5668;52.012;8.724;2022-11-06T13:25:57;4.67;;;2.90;;
11222;SDS011;5668;52.012;8.724;2022-11-06T13:28:29;4.70;;;2.37;;
11222;SDS011;5668;52.012;8.724;2022-11-06T13:31:03;5.70;;;3.97;;
11222;SDS011;5668;52.012;8.724;2022-11-06T13:33:33;4.03;;;3.50;;
11222;SDS011;5668;52.012;8.724;2022-11-06T13:36:04;15.73;;;14.13;;
11222;SDS011;5668;52.012;8.724;2022-11-06T13:38:33;8.60;;;6.30;;
11222;SDS011;5668;52.012;8.724;2022-11-06T13:41:05;8.20;;;5.70;;
11222;SDS011;5668;52.012;8.724;2022-11-06T13:43:40;4.87;;;3.60;;
11222;SDS011;5668;52.012;8.724;2022-11-06T13:46:14;5.30;;;2.87;;
11222;SDS011;5668;52.012;8.724;2022-11-06T13:48:54;4.43;;;2.50;;
11222;SDS011;5668;52.012;8.724;2022-11-06T13:51:37;4.93;;;2.37;;
11222;SDS011;5668;52.012;8.724;2022-11-06T13:54:15;4.60;;;2.97;;
11222;SDS011;5668;52.012;8.724;2022-11-06T13:56:56;5.00;;;2.60;;
11222;SDS011;5668;52.012;8.724;2022-11-06T14:02:40;6.80;;;2.33;;
11222;SDS011;5668;52.012;8.724;2022-11-06T14:05:42;3.50;;;2.10;;
11222;SDS011;5668;52.012;8.724;2022-11-06T14:08:15;4.87;;;2.30;;
11222;SDS011;5668;52.012;8.724;2022-11-06T14:10:47;4.00;;;2.20;;
11222;SDS011;5668;52.012;8.724;2022-11-06T14:13:22;3.70;;;2.33;;
11222;SDS011;5668;52.012;8.724;2022-11-06T14:15:59;3.70;;;2.20;;
11222;SDS011;5668;52.012;8.724;2022-11-06T14:18:28;3.80;;;2.00;;
11222;SDS011;5668;52.012;8.724;2022-11-06T14:23:53;3.13;;;1.93;;
11222;SDS011;5668;52.012;8.724;2022-11-06T14:26:37;2.43;;;1.90;;
11222;SDS011;5668;52.012;8.724;2022-11-06T14:32:10;4.53;;;2.17;;
11222;SDS011;5668;52.012;8.724;2022-11-06T14:34:57;3.70;;;2.20;;
11222;SDS011;5668;52.012;8.724;2022-11-06T14:44:20;3.67;;;2.10;;
11222;SDS011;5668;52.012;8.724;2022-11-06T14:47:00;4.30;;;2.33;;
11222;SDS011;5668;52.012;8.724;2022-11-06T14:49:32;2.97;;;2.23;;
11222;SDS011;5668;52.012;8.724;2022-11-06T14:52:05;1.93;;;1.80;;
11222;SDS011;5668;52.012;8.724;2022-11-06T14:54:35;3.73;;;1.90;;
11222;SDS011;5668;52.012;8.724;2022-11-06T14:57:05;3.63;;;2.00;;
11222;SDS011;5668;52.012;8.724;2022-11-06T14:59:34;5.27;;;1.77;;
11222;SDS011;5668;52.012;8.724;2022-11-06T15:02:10;3.00;;;2.10;;
11222;SDS011;5668;52.012;8.724;2022-11-06T15:04:44;2.33;;;1.80;;
11222;SDS011;5668;52.012;8.724;2022-11-06T15:07:25;3.63;;;1.73;;
11222;SDS011;5668;52.012;8.724;2022-11-06T15:09:58;2.90;;;1.97;;
11222;SDS011;5668;52.012;8.724;2022-11-06T15:15:31;2.10;;;1.60;;
11222;SDS011;5668;52.012;8.724;2022-11-06T15:17:59;2.17;;;1.97;;
11222;SDS011;5668;52.012;8.724;2022-11-06T15:20:30;2.53;;;1.63;;
11222;SDS011;5668;52.012;8.724;2022-11-06T15:23:00;3.10;;;2.10;;
11222;SDS011;5668;52.012;8.724;2022-11-06T15:25:32;3.90;;;1.80;;
11222;SDS011;5668;52.012;8.724;2022-11-06T15:28:01;3.87;;;2.00;;
11222;SDS011;5668;52.012;8.724;2022-11-06T15:30:32;1.77;;;1.60;;
11222;SDS011;5668;52.012;8.724;2022-11-06T15:33:10;4.27;;;2.13;;
11222;SDS011;5668;52.012;8.724;2022-11-06T15:35:42;2.30;;;1.60;;
11222;SDS011;5668;52.012;8.724;2022-11-06T15:38:13;2.87;;;1.77;;
11222;SDS011;5668;52.012;8.724;2022-11-06T15:40:42;2.63;;;1.73;;
11222;SDS011;5668;52.012;8.724;2022-11-06T15:43:22;2.50;;;1.67;;
11222;SDS011;5668;52.012;8.724;2022-11-06T15:46:12;2.47;;;1.63;;
11222;SDS011;5668;52.012;8.724;2022-11-06T15:48:43;2.87;;;1.60;;
11222;SDS011;5668;52.012;8.724;2022-11-06T15:51:22;3.33;;;1.60;;
11222;SDS011;5668;52.012;8.724;2022-11-06T15:53:51;5.27;;;1.80;;